Time;durP1;ratioP1;P1;durP2;ratioP2;P2;SDS_P1;SDS_P2;PMS_P1;PMS_P2;Temp;Humidity;BMP_temperature;BMP_pressure;BME280_temperature;BME280_humidity;BME280_pressure;Samples;Min_cycle;Max_cycle;Signal;HPM_P1;HPM_P2
2022/02/11 00:00:25;;;;;;;1999.90;999.90;;;;;;;;;;4961531;28;20707;-69
2022/02/11 00:06:21;;;;;;;1999.90;999.90;;;;;;;;;;4950519;28;20430;-69
2022/02/11 00:09:06;;;;;;;1999.90;999.90;;;;;;;;;;4950982;28;20217;-69
2022/02/11 00:11:51;;;;;;;1999.90;999.90;;;;;;;;;;4956081;28;20213;-68
2022/02/11 00:14:44;;;;;;;1999.90;999.90;;;;;;;;;;4960034;29;20253;-68
2022/02/11 00:17:31;;;;;;;1999.90;999.90;;;;;;;;;;4949012;28;20783;-68
2022/02/11 00:20:17;;;;;;;1999.90;999.90;;;;;;;;;;4950518;28;20337;-69
2022/02/11 00:23:03;;;;;;;1999.90;999.90;;;;;;;;;;4958133;28;20212;-69
2022/02/11 00:25:53;;;;;;;1999.90;999.90;;;;;;;;;;4957575;28;20271;-68
2022/02/11 00:29:35;;;;;;;1999.90;999.90;;;;;;;;;;4959061;29;20751;-69
2022/02/11 00:32:09;;;;;;;1999.90;999.90;;;;;;;;;;4949714;28;20213;-69
2022/02/11 00:35:04;;;;;;;1999.90;999.90;;;;;;;;;;4958939;29;20201;-69
2022/02/11 00:37:49;;;;;;;1999.90;999.90;;;;;;;;;;4954572;29;20305;-68
2022/02/11 00:41:00;;;;;;;1999.90;999.90;;;;;;;;;;4958629;28;20762;-69
2022/02/11 00:47:24;;;;;;;1999.90;999.90;;;;;;;;;;4949977;28;20328;-69
2022/02/11 01:02:35;;;;;;;1999.90;999.90;;;;;;;;;;4949643;28;20260;-69
2022/02/11 01:05:21;;;;;;;1999.90;999.90;;;;;;;;;;4957187;28;20298;-69
2022/02/11 01:08:06;;;;;;;1999.90;999.90;;;;;;;;;;4950386;29;20260;-69
2022/02/11 01:10:51;;;;;;;1999.90;999.90;;;;;;;;;;4950335;28;20213;-69
2022/02/11 01:13:36;;;;;;;1999.90;999.90;;;;;;;;;;4953067;29;20221;-69
2022/02/11 01:16:27;;;;;;;1999.90;999.90;;;;;;;;;;4949701;28;20227;-69
2022/02/11 01:19:20;;;;;;;1999.90;999.90;;;;;;;;;;4957897;28;20860;-69
2022/02/11 01:22:15;;;;;;;1999.90;999.90;;;;;;;;;;4950668;29;20209;-69
2022/02/11 01:38:33;;;;;;;1999.90;999.90;;;;;;;;;;5110209;27;20527;-68
2022/02/11 01:44:52;;;;;;;1999.90;999.90;;;;;;;;;;5093874;28;20681;-68
2022/02/11 01:50:53;;;;;;;1999.90;999.90;;;;;;;;;;5083066;28;20277;-69
2022/02/11 01:53:44;;;;;;;1999.90;999.90;;;;;;;;;;5068895;28;20213;-69
2022/02/11 01:56:42;;;;;;;1999.90;999.90;;;;;;;;;;5077379;28;20225;-68
2022/02/11 02:00:07;;;;;;;1999.90;999.90;;;;;;;;;;5075748;28;20574;-68
2022/02/11 02:03:17;;;;;;;1999.90;999.90;;;;;;;;;;5085420;28;20403;-69
2022/02/11 02:09:40;;;;;;;1999.90;999.90;;;;;;;;;;5088014;28;20239;-68
2022/02/11 02:12:51;;;;;;;1999.90;999.90;;;;;;;;;;5081150;28;20354;-68
2022/02/11 02:22:02;;;;;;;1999.90;999.90;;;;;;;;;;5083843;28;20192;-68
2022/02/11 02:24:58;;;;;;;1999.90;999.90;;;;;;;;;;5087790;28;20203;-68
2022/02/11 02:28:00;;;;;;;1999.90;999.90;;;;;;;;;;5083457;28;20223;-68
2022/02/11 02:34:23;;;;;;;1999.90;999.90;;;;;;;;;;5059736;28;20204;-69
2022/02/11 02:37:20;;;;;;;1999.90;999.90;;;;;;;;;;5086319;28;20347;-68
2022/02/11 02:58:33;;;;;;;1999.90;999.90;;;;;;;;;;5057351;28;20235;-68
2022/02/11 03:01:36;;;;;;;1999.90;999.90;;;;;;;;;;5071019;28;20723;-68
2022/02/11 03:17:36;;;;;;;1999.90;999.90;;;;;;;;;;5070368;28;20695;-68
2022/02/11 03:35:37;;;;;;;1999.90;999.90;;;;;;;;;;5073574;28;20248;-68
2022/02/11 03:51:02;;;;;;;1999.90;999.90;;;;;;;;;;5056039;28;20200;-68
2022/02/11 03:54:11;;;;;;;1999.90;999.90;;;;;;;;;;5073701;28;20201;-69
2022/02/11 04:21:56;;;;;;;1999.90;999.90;;;;;;;;;;5073154;28;20280;-68
2022/02/11 04:55:22;;;;;;;1999.90;999.90;;;;;;;;;;5072900;28;20196;-68
2022/02/11 05:01:11;;;;;;;1999.90;999.90;;;;;;;;;;5072398;28;20192;-69
2022/02/11 05:03:56;;;;;;;1999.90;999.90;;;;;;;;;;5071740;28;20518;-69
2022/02/11 05:06:41;;;;;;;1999.90;999.90;;;;;;;;;;5072529;28;20304;-68
2022/02/11 05:09:26;;;;;;;1999.90;999.90;;;;;;;;;;5072076;28;20209;-69
2022/02/11 05:12:11;;;;;;;1999.90;999.90;;;;;;;;;;5072788;28;20243;-68
2022/02/11 05:14:57;;;;;;;1999.90;999.90;;;;;;;;;;5072476;28;20283;-69
2022/02/11 05:17:45;;;;;;;1999.90;999.90;;;;;;;;;;5072096;28;20689;-68
2022/02/11 05:20:30;;;;;;;1999.90;999.90;;;;;;;;;;5072247;28;20205;-69
2022/02/11 05:23:16;;;;;;;1999.90;999.90;;;;;;;;;;5072619;28;20196;-68
2022/02/11 05:26:01;;;;;;;1999.90;999.90;;;;;;;;;;5072623;28;20228;-69
2022/02/11 05:28:46;;;;;;;1999.90;999.90;;;;;;;;;;5072188;28;20204;-68
2022/02/11 05:31:32;;;;;;;1999.90;999.90;;;;;;;;;;5072542;28;20204;-67
2022/02/11 05:34:17;;;;;;;1999.90;999.90;;;;;;;;;;5071998;28;20690;-68
2022/02/11 05:37:02;;;;;;;1999.90;999.90;;;;;;;;;;5072146;28;20343;-69
2022/02/11 05:39:47;;;;;;;1999.90;999.90;;;;;;;;;;5071773;28;20205;-68
2022/02/11 05:42:32;;;;;;;1999.90;999.90;;;;;;;;;;5072363;28;20250;-68
2022/02/11 05:45:17;;;;;;;1999.90;999.90;;;;;;;;;;5072072;28;20263;-68
2022/02/11 05:48:04;;;;;;;1999.90;999.90;;;;;;;;;;5071578;28;20225;-69
2022/02/11 05:50:49;;;;;;;1999.90;999.90;;;;;;;;;;5072190;28;20204;-68
2022/02/11 05:53:35;;;;;;;1999.90;999.90;;;;;;;;;;5072084;28;20235;-69
2022/02/11 05:56:20;;;;;;;1999.90;999.90;;;;;;;;;;5072034;28;20229;-69
2022/02/11 05:59:05;;;;;;;1999.90;999.90;;;;;;;;;;5071692;28;20208;-68
2022/02/11 06:01:50;;;;;;;1999.90;999.90;;;;;;;;;;5071915;28;20276;-68
2022/02/11 06:04:36;;;;;;;1999.90;999.90;;;;;;;;;;5072430;28;20247;-69
2022/02/11 06:07:21;;;;;;;1999.90;999.90;;;;;;;;;;5071884;28;20224;-68
2022/02/11 06:10:06;;;;;;;1999.90;999.90;;;;;;;;;;5071045;28;20403;-69
2022/02/11 06:12:51;;;;;;;1999.90;999.90;;;;;;;;;;5072854;28;20243;-68
2022/02/11 06:15:36;;;;;;;1999.90;999.90;;;;;;;;;;5075807;28;20285;-68
2022/02/11 06:18:21;;;;;;;1999.90;999.90;;;;;;;;;;5075322;28;20197;-68
2022/02/11 06:21:07;;;;;;;1999.90;999.90;;;;;;;;;;5075896;28;20266;-68
2022/02/11 06:23:55;;;;;;;1999.90;999.90;;;;;;;;;;5075628;28;20209;-68
2022/02/11 06:26:41;;;;;;;1999.90;999.90;;;;;;;;;;5075126;28;20279;-68
2022/02/11 06:29:26;;;;;;;1999.90;999.90;;;;;;;;;;5075253;28;20216;-69
2022/02/11 06:32:11;;;;;;;1999.90;999.90;;;;;;;;;;5075643;28;20208;-68
2022/02/11 06:34:57;;;;;;;1999.90;999.90;;;;;;;;;;5075503;28;20419;-68
2022/02/11 06:37:45;;;;;;;1999.90;999.90;;;;;;;;;;5075288;28;20201;-68
2022/02/11 06:40:30;;;;;;;1999.90;999.90;;;;;;;;;;5076613;28;20208;-63
2022/02/11 06:43:16;;;;;;;1999.90;999.90;;;;;;;;;;5073691;28;20208;-67
2022/02/11 06:46:01;;;;;;;1999.90;999.90;;;;;;;;;;5068204;28;20275;-67
2022/02/11 06:48:47;;;;;;;1999.90;999.90;;;;;;;;;;5072593;28;20378;-67
2022/02/11 06:51:32;;;;;;;1999.90;999.90;;;;;;;;;;5074295;28;20682;-68
2022/02/11 06:54:18;;;;;;;1999.90;999.90;;;;;;;;;;5074190;28;20204;-68
2022/02/11 06:57:03;;;;;;;1999.90;999.90;;;;;;;;;;5074929;28;20306;-68
2022/02/11 06:59:48;;;;;;;1999.90;999.90;;;;;;;;;;5073945;28;20189;-67
2022/02/11 07:02:33;;;;;;;1999.90;999.90;;;;;;;;;;5071880;28;20586;-68
2022/02/11 07:05:19;;;;;;;1999.90;999.90;;;;;;;;;;5073013;28;20290;-67
2022/02/11 07:08:05;;;;;;;1999.90;999.90;;;;;;;;;;5067026;28;20711;-68
2022/02/11 07:10:51;;;;;;;1999.90;999.90;;;;;;;;;;5074997;28;20630;-68
2022/02/11 07:13:36;;;;;;;1999.90;999.90;;;;;;;;;;5075281;28;20225;-68
2022/02/11 07:16:21;;;;;;;1999.90;999.90;;;;;;;;;;5064980;28;20645;-67
2022/02/11 07:19:06;;;;;;;1999.90;999.90;;;;;;;;;;5067214;28;20208;-67
2022/02/11 07:21:51;;;;;;;1999.90;999.90;;;;;;;;;;5073330;28;20209;-67
2022/02/11 07:24:35;;;;;;;1999.90;999.90;;;;;;;;;;5071624;28;20197;-68
2022/02/11 07:27:22;;;;;;;1999.90;999.90;;;;;;;;;;5070433;28;20292;-68
2022/02/11 07:30:07;;;;;;;1999.90;999.90;;;;;;;;;;5069600;28;20201;-68
2022/02/11 07:32:52;;;;;;;1999.90;999.90;;;;;;;;;;5065469;28;20204;-68
2022/02/11 07:35:37;;;;;;;1999.90;999.90;;;;;;;;;;5064273;28;20430;-68
2022/02/11 07:38:22;;;;;;;1999.90;999.90;;;;;;;;;;5073597;28;20204;-68
2022/02/11 07:41:07;;;;;;;1999.90;999.90;;;;;;;;;;5067541;28;20212;-69
2022/02/11 07:43:54;;;;;;;1999.90;999.90;;;;;;;;;;5070790;28;20613;-66
2022/02/11 07:46:39;;;;;;;1999.90;999.90;;;;;;;;;;5065987;28;20352;-66
2022/02/11 07:49:23;;;;;;;1999.90;999.90;;;;;;;;;;5060400;28;20206;-69
2022/02/11 07:52:08;;;;;;;1999.90;999.90;;;;;;;;;;5065144;28;20212;-68
2022/02/11 07:54:53;;;;;;;1999.90;999.90;;;;;;;;;;5074652;28;20205;-69
2022/02/11 07:57:38;;;;;;;1999.90;999.90;;;;;;;;;;5074960;28;20744;-68
2022/02/11 08:00:26;;;;;;;1999.90;999.90;;;;;;;;;;5067785;28;20212;-69
2022/02/11 08:03:11;;;;;;;1999.90;999.90;;;;;;;;;;5067500;28;20441;-69
2022/02/11 08:05:56;;;;;;;1999.90;999.90;;;;;;;;;;5067611;28;20220;-68
2022/02/11 08:08:41;;;;;;;1999.90;999.90;;;;;;;;;;5070842;28;20245;-68
2022/02/11 08:11:26;;;;;;;1999.90;999.90;;;;;;;;;;5066597;28;20399;-68
2022/02/11 08:14:11;;;;;;;1999.90;999.90;;;;;;;;;;5068665;28;20205;-68
2022/02/11 08:16:58;;;;;;;1999.90;999.90;;;;;;;;;;5072403;28;20233;-68
2022/02/11 08:19:43;;;;;;;1999.90;999.90;;;;;;;;;;5068495;28;20367;-68
2022/02/11 08:22:28;;;;;;;1999.90;999.90;;;;;;;;;;5072484;28;20206;-68
2022/02/11 08:25:13;;;;;;;1999.90;999.90;;;;;;;;;;5069810;28;20218;-69
2022/02/11 08:27:58;;;;;;;1999.90;999.90;;;;;;;;;;5069700;28;20213;-69
2022/02/11 08:30:44;;;;;;;1999.90;999.90;;;;;;;;;;5068934;28;20209;-67
2022/02/11 08:33:30;;;;;;;1999.90;999.90;;;;;;;;;;5069537;28;21448;-69
2022/02/11 08:36:15;;;;;;;1999.90;999.90;;;;;;;;;;5072481;28;20224;-68
2022/02/11 08:39:00;;;;;;;1999.90;999.90;;;;;;;;;;5064802;28;20207;-69
2022/02/11 08:41:45;;;;;;;1999.90;999.90;;;;;;;;;;5068348;28;20251;-68
2022/02/11 08:44:30;;;;;;;1999.90;999.90;;;;;;;;;;5072419;28;20260;-67
2022/02/11 08:47:15;;;;;;;1999.90;999.90;;;;;;;;;;5070711;28;20229;-69
2022/02/11 08:50:02;;;;;;;1999.90;999.90;;;;;;;;;;5071855;28;20197;-68
2022/02/11 08:52:47;;;;;;;1999.90;999.90;;;;;;;;;;5069284;28;20306;-69
2022/02/11 08:55:32;;;;;;;1999.90;999.90;;;;;;;;;;5072234;28;20247;-67
2022/02/11 08:58:19;;;;;;;1999.90;999.90;;;;;;;;;;5068591;28;20508;-65
2022/02/11 09:01:05;;;;;;;1999.90;999.90;;;;;;;;;;5072192;28;20264;-67
2022/02/11 09:03:50;;;;;;;1999.90;999.90;;;;;;;;;;5071702;28;20404;-68
2022/02/11 09:06:36;;;;;;;1999.90;999.90;;;;;;;;;;5072239;28;20742;-68
2022/02/11 09:09:21;;;;;;;1999.90;999.90;;;;;;;;;;5072127;28;20593;-68
2022/02/11 09:12:06;;;;;;;1999.90;999.90;;;;;;;;;;5072193;28;20231;-68
2022/02/11 09:14:52;;;;;;;1999.90;999.90;;;;;;;;;;5070527;28;20208;-67
2022/02/11 09:17:37;;;;;;;1999.90;999.90;;;;;;;;;;5065473;28;20726;-67
2022/02/11 09:20:22;;;;;;;1999.90;999.90;;;;;;;;;;5070874;28;20200;-68
2022/02/11 09:23:09;;;;;;;1999.90;999.90;;;;;;;;;;5071072;28;20218;-68
2022/02/11 09:25:54;;;;;;;1999.90;999.90;;;;;;;;;;5072115;28;20241;-69
2022/02/11 09:28:39;;;;;;;1999.90;999.90;;;;;;;;;;5072226;28;20232;-68
2022/02/11 09:31:27;;;;;;;1999.90;999.90;;;;;;;;;;5068979;28;20312;-69
2022/02/11 09:34:12;;;;;;;1999.90;999.90;;;;;;;;;;5073617;28;20204;-68
2022/02/11 09:36:57;;;;;;;1999.90;999.90;;;;;;;;;;5065581;28;20572;-68
2022/02/11 09:39:43;;;;;;;1999.90;999.90;;;;;;;;;;5066360;28;20206;-68
2022/02/11 09:42:29;;;;;;;1999.90;999.90;;;;;;;;;;5067338;28;20247;-69
2022/02/11 09:45:17;;;;;;;1999.90;999.90;;;;;;;;;;5071938;28;20209;-68
2022/02/11 09:48:02;;;;;;;1999.90;999.90;;;;;;;;;;5074985;28;20592;-68
2022/02/11 09:50:49;;;;;;;1999.90;999.90;;;;;;;;;;5072317;28;20697;-67
2022/02/11 09:53:34;;;;;;;1999.90;999.90;;;;;;;;;;5074864;28;20205;-68
2022/02/11 09:56:21;;;;;;;1999.90;999.90;;;;;;;;;;5075965;28;20232;-68
2022/02/11 09:59:06;;;;;;;1999.90;999.90;;;;;;;;;;5073886;28;20237;-68
2022/02/11 10:01:51;;;;;;;1999.90;999.90;;;;;;;;;;5075349;28;20205;-67
2022/02/11 10:04:38;;;;;;;1999.90;999.90;;;;;;;;;;5067814;28;20707;-68
2022/02/11 10:07:23;;;;;;;1999.90;999.90;;;;;;;;;;5063996;28;20336;-68
2022/02/11 10:10:13;;;;;;;1999.90;999.90;;;;;;;;;;5055629;28;20205;-67
2022/02/11 10:12:59;;;;;;;1999.90;999.90;;;;;;;;;;5069488;28;20206;-67
2022/02/11 10:15:48;;;;;;;1999.90;999.90;;;;;;;;;;5060477;28;20232;-68
2022/02/11 10:18:34;;;;;;;1999.90;999.90;;;;;;;;;;5054824;28;20202;-68
2022/02/11 10:21:20;;;;;;;1999.90;999.90;;;;;;;;;;5064890;28;20209;-68
2022/02/11 10:24:05;;;;;;;1999.90;999.90;;;;;;;;;;5065213;28;20714;-68
2022/02/11 10:26:50;;;;;;;1999.90;999.90;;;;;;;;;;5055468;28;20227;-68
2022/02/11 10:29:43;;;;;;;1999.90;999.90;;;;;;;;;;5063169;28;20225;-67
2022/02/11 10:32:43;;;;;;;1999.90;999.90;;;;;;;;;;5075899;28;20205;-67
2022/02/11 10:35:28;;;;;;;1999.90;999.90;;;;;;;;;;5073313;28;20605;-68
2022/02/11 10:38:14;;;;;;;1999.90;999.90;;;;;;;;;;5070319;28;20821;-68
2022/02/11 10:41:00;;;;;;;1999.90;999.90;;;;;;;;;;5072095;28;20210;-68
2022/02/11 10:43:48;;;;;;;1999.90;999.90;;;;;;;;;;5073039;28;20218;-68
2022/02/11 10:46:36;;;;;;;1999.90;999.90;;;;;;;;;;5067668;28;20768;-69
2022/02/11 10:49:30;;;;;;;1999.90;999.90;;;;;;;;;;5071205;28;20234;-67
2022/02/11 10:52:16;;;;;;;1999.90;999.90;;;;;;;;;;5069986;28;20244;-69
2022/02/11 10:55:01;;;;;;;1999.90;999.90;;;;;;;;;;5074322;28;20207;-68
2022/02/11 10:57:53;;;;;;;1999.90;999.90;;;;;;;;;;5073654;28;20205;-67
2022/02/11 11:00:38;;;;;;;1999.90;999.90;;;;;;;;;;5072667;28;20209;-68
2022/02/11 11:03:24;;;;;;;1999.90;999.90;;;;;;;;;;5070173;28;20431;-67
2022/02/11 11:06:09;;;;;;;1999.90;999.90;;;;;;;;;;5076303;28;20802;-68
2022/02/11 11:08:57;;;;;;;1999.90;999.90;;;;;;;;;;5077790;28;20728;-68
2022/02/11 11:11:43;;;;;;;1999.90;999.90;;;;;;;;;;5073563;28;20653;-68
2022/02/11 11:14:28;;;;;;;1999.90;999.90;;;;;;;;;;5070622;28;20209;-67
2022/02/11 11:17:14;;;;;;;1999.90;999.90;;;;;;;;;;5072037;28;20859;-68
2022/02/11 11:20:01;;;;;;;1999.90;999.90;;;;;;;;;;5072486;28;20274;-68
2022/02/11 11:22:47;;;;;;;1999.90;999.90;;;;;;;;;;5074197;28;20249;-68
2022/02/11 11:25:47;;;;;;;1999.90;999.90;;;;;;;;;;5065513;28;20227;-68
2022/02/11 11:28:39;;;;;;;1999.90;999.90;;;;;;;;;;5071285;28;20214;-68
2022/02/11 11:31:25;;;;;;;1999.90;999.90;;;;;;;;;;5056264;28;20223;-67
2022/02/11 11:34:27;;;;;;;1999.90;999.90;;;;;;;;;;5054435;28;20202;-68
2022/02/11 11:37:14;;;;;;;1999.90;999.90;;;;;;;;;;5072812;28;20273;-67
2022/02/11 11:39:59;;;;;;;1999.90;999.90;;;;;;;;;;5071429;28;20202;-67
2022/02/11 11:42:45;;;;;;;1999.90;999.90;;;;;;;;;;5073517;28;20588;-67
2022/02/11 11:45:30;;;;;;;1999.90;999.90;;;;;;;;;;5073265;28;20293;-67
2022/02/11 11:48:15;;;;;;;1999.90;999.90;;;;;;;;;;5073031;28;20203;-68
2022/02/11 11:51:04;;;;;;;1999.90;999.90;;;;;;;;;;5074033;28;20269;-67
2022/02/11 11:53:51;;;;;;;1999.90;999.90;;;;;;;;;;5073529;28;20211;-67
2022/02/11 11:56:36;;;;;;;1999.90;999.90;;;;;;;;;;5073158;28;20603;-67
2022/02/11 11:59:22;;;;;;;1999.90;999.90;;;;;;;;;;5073757;28;20207;-67
2022/02/11 12:02:08;;;;;;;1999.90;999.90;;;;;;;;;;5070458;28;20707;-67
2022/02/11 12:04:54;;;;;;;1999.90;999.90;;;;;;;;;;5069194;28;20395;-67
2022/02/11 12:07:39;;;;;;;1999.90;999.90;;;;;;;;;;5072967;28;20203;-68
2022/02/11 12:10:26;;;;;;;1999.90;999.90;;;;;;;;;;5072125;28;20234;-68
2022/02/11 12:13:12;;;;;;;1999.90;999.90;;;;;;;;;;5072972;28;20225;-67
2022/02/11 12:15:58;;;;;;;1999.90;999.90;;;;;;;;;;5072482;28;20231;-68
2022/02/11 12:18:46;;;;;;;1999.90;999.90;;;;;;;;;;5072597;28;20201;-68
2022/02/11 12:21:33;;;;;;;1999.90;999.90;;;;;;;;;;5072943;28;20252;-68
2022/02/11 12:27:29;;;;;;;1999.90;999.90;;;;;;;;;;5071536;28;20654;-67
2022/02/11 12:30:15;;;;;;;1999.90;999.90;;;;;;;;;;5065449;28;20269;-67
2022/02/11 12:33:00;;;;;;;1999.90;999.90;;;;;;;;;;5066527;28;21004;-67
2022/02/11 12:35:47;;;;;;;1999.90;999.90;;;;;;;;;;5070218;28;20246;-68
2022/02/11 12:38:32;;;;;;;1999.90;999.90;;;;;;;;;;5070541;28;20686;-67
2022/02/11 12:41:17;;;;;;;1999.90;999.90;;;;;;;;;;5068514;28;20578;-67
2022/02/11 12:44:04;;;;;;;1999.90;999.90;;;;;;;;;;5071037;28;20216;-67
2022/02/11 12:46:49;;;;;;;1999.90;999.90;;;;;;;;;;5070020;28;20239;-68
2022/02/11 12:49:43;;;;;;;1999.90;999.90;;;;;;;;;;5070886;28;20227;-68
2022/02/11 12:52:29;;;;;;;1999.90;999.90;;;;;;;;;;5060192;28;20607;-68
2022/02/11 12:55:16;;;;;;;1999.90;999.90;;;;;;;;;;5067070;28;20756;-68
2022/02/11 12:58:01;;;;;;;1999.90;999.90;;;;;;;;;;5069810;28;20389;-68
2022/02/11 13:00:50;;;;;;;1999.90;999.90;;;;;;;;;;5072273;28;20261;-68
2022/02/11 13:03:35;;;;;;;1999.90;999.90;;;;;;;;;;5066013;28;20388;-67
2022/02/11 13:06:22;;;;;;;1999.90;999.90;;;;;;;;;;5063845;28;20242;-68
2022/02/11 13:09:07;;;;;;;1999.90;999.90;;;;;;;;;;5070177;28;20608;-68
2022/02/11 13:11:56;;;;;;;1999.90;999.90;;;;;;;;;;5068890;28;20628;-68
2022/02/11 13:14:42;;;;;;;1999.90;999.90;;;;;;;;;;5065391;28;20226;-69
2022/02/11 13:17:30;;;;;;;1999.90;999.90;;;;;;;;;;5062942;28;20637;-68
2022/02/11 13:20:16;;;;;;;1999.90;999.90;;;;;;;;;;5072776;28;20202;-68
2022/02/11 13:23:01;;;;;;;1999.90;999.90;;;;;;;;;;5072329;28;20333;-69
2022/02/11 13:25:46;;;;;;;1999.90;999.90;;;;;;;;;;5069860;28;20234;-69
2022/02/11 13:28:42;;;;;;;1999.90;999.90;;;;;;;;;;5072060;28;20260;-68
2022/02/11 13:31:27;;;;;;;1999.90;999.90;;;;;;;;;;5066700;28;20694;-68
2022/02/11 13:34:14;;;;;;;1999.90;999.90;;;;;;;;;;5063094;28;20412;-69
2022/02/11 13:37:03;;;;;;;1999.90;999.90;;;;;;;;;;5069866;28;20250;-68
2022/02/11 13:39:50;;;;;;;1999.90;999.90;;;;;;;;;;5063682;28;20590;-68
2022/02/11 13:42:35;;;;;;;1999.90;999.90;;;;;;;;;;5051829;28;20406;-68
2022/02/11 13:45:20;;;;;;;1999.90;999.90;;;;;;;;;;5051866;28;20208;-68
2022/02/11 13:48:08;;;;;;;1999.90;999.90;;;;;;;;;;5051340;28;20204;-69
2022/02/11 13:51:02;;;;;;;1999.90;999.90;;;;;;;;;;5051667;28;20252;-68
2022/02/11 13:53:49;;;;;;;1999.90;999.90;;;;;;;;;;5051706;28;20259;-68
2022/02/11 13:56:37;;;;;;;1999.90;999.90;;;;;;;;;;5051562;28;20239;-68
2022/02/11 13:59:26;;;;;;;1999.90;999.90;;;;;;;;;;5051336;28;20280;-68
2022/02/11 14:02:11;;;;;;;1999.90;999.90;;;;;;;;;;5051309;28;20207;-68
2022/02/11 14:05:02;;;;;;;1999.90;999.90;;;;;;;;;;5051830;28;20250;-69
2022/02/11 14:07:52;;;;;;;1999.90;999.90;;;;;;;;;;5051383;28;20263;-69
2022/02/11 14:10:37;;;;;;;1999.90;999.90;;;;;;;;;;5051269;28;20228;-68
2022/02/11 14:13:22;;;;;;;1999.90;999.90;;;;;;;;;;5051365;28;20317;-68
2022/02/11 14:16:07;;;;;;;1999.90;999.90;;;;;;;;;;5051156;28;20231;-69
2022/02/11 14:18:52;;;;;;;1999.90;999.90;;;;;;;;;;5051125;28;20736;-69
2022/02/11 14:21:37;;;;;;;1999.90;999.90;;;;;;;;;;5051568;28;20230;-69
2022/02/11 14:24:24;;;;;;;1999.90;999.90;;;;;;;;;;5058155;28;20212;-68
2022/02/11 14:27:10;;;;;;;1999.90;999.90;;;;;;;;;;5067446;28;20229;-68
2022/02/11 14:29:56;;;;;;;1999.90;999.90;;;;;;;;;;5069600;28;20236;-69
2022/02/11 14:32:41;;;;;;;1999.90;999.90;;;;;;;;;;5067102;28;20224;-68
2022/02/11 14:35:26;;;;;;;1999.90;999.90;;;;;;;;;;5071824;28;20230;-67
2022/02/11 14:38:11;;;;;;;1999.90;999.90;;;;;;;;;;5072503;28;20222;-68
2022/02/11 14:44:00;;;;;;;1999.90;999.90;;;;;;;;;;5074393;28;20586;-68
2022/02/11 14:46:45;;;;;;;1999.90;999.90;;;;;;;;;;5074439;28;20231;-68
2022/02/11 14:49:30;;;;;;;1999.90;999.90;;;;;;;;;;5073959;28;20427;-68
2022/02/11 14:52:16;;;;;;;1999.90;999.90;;;;;;;;;;5074749;28;20301;-68
2022/02/11 14:55:01;;;;;;;1999.90;999.90;;;;;;;;;;5074726;28;20203;-68
2022/02/11 14:57:47;;;;;;;1999.90;999.90;;;;;;;;;;5074491;28;20213;-67
2022/02/11 15:00:32;;;;;;;1999.90;999.90;;;;;;;;;;5074661;28;20203;-67
2022/02/11 15:03:17;;;;;;;1999.90;999.90;;;;;;;;;;5074751;28;20216;-66
2022/02/11 15:06:02;;;;;;;1999.90;999.90;;;;;;;;;;5074747;28;20227;-68
2022/02/11 15:08:47;;;;;;;1999.90;999.90;;;;;;;;;;5074281;28;20338;-68
2022/02/11 15:11:32;;;;;;;1999.90;999.90;;;;;;;;;;5074409;28;20290;-68
2022/02/11 15:14:21;;;;;;;1999.90;999.90;;;;;;;;;;5074053;28;20211;-68
2022/02/11 15:17:06;;;;;;;1999.90;999.90;;;;;;;;;;5074285;28;20224;-67
2022/02/11 15:19:53;;;;;;;1999.90;999.90;;;;;;;;;;5073821;28;20196;-68
2022/02/11 15:22:38;;;;;;;1999.90;999.90;;;;;;;;;;5074209;28;20238;-68
2022/02/11 15:25:23;;;;;;;1999.90;999.90;;;;;;;;;;5074065;28;20566;-68
2022/02/11 15:28:08;;;;;;;1999.90;999.90;;;;;;;;;;5073751;28;20403;-68
2022/02/11 15:30:55;;;;;;;1999.90;999.90;;;;;;;;;;5074058;28;20228;-68
2022/02/11 15:33:41;;;;;;;1999.90;999.90;;;;;;;;;;5074119;28;20338;-68
2022/02/11 15:36:26;;;;;;;1999.90;999.90;;;;;;;;;;5073791;28;20777;-67
2022/02/11 15:39:11;;;;;;;1999.90;999.90;;;;;;;;;;5073847;28;20200;-68
2022/02/11 15:41:56;;;;;;;1999.90;999.90;;;;;;;;;;5073766;28;20246;-68
2022/02/11 15:44:41;;;;;;;1999.90;999.90;;;;;;;;;;5073918;28;20345;-68
2022/02/11 15:47:28;;;;;;;1999.90;999.90;;;;;;;;;;5073733;28;20232;-68
2022/02/11 15:50:13;;;;;;;1999.90;999.90;;;;;;;;;;5073310;28;20220;-67
2022/02/11 15:52:58;;;;;;;1999.90;999.90;;;;;;;;;;5073664;28;20586;-68
2022/02/11 15:55:45;;;;;;;1999.90;999.90;;;;;;;;;;5073484;28;20227;-68
2022/02/11 15:58:30;;;;;;;1999.90;999.90;;;;;;;;;;5073300;28;20576;-68
2022/02/11 16:01:16;;;;;;;1999.90;999.90;;;;;;;;;;5073484;28;20289;-68
2022/02/11 16:04:04;;;;;;;1999.90;999.90;;;;;;;;;;5073385;28;20207;-68
2022/02/11 16:06:49;;;;;;;1999.90;999.90;;;;;;;;;;5073419;28;20224;-68
2022/02/11 16:09:34;;;;;;;1999.90;999.90;;;;;;;;;;5072906;28;20358;-67
2022/02/11 16:12:18;;;;;;;1999.90;999.90;;;;;;;;;;5073225;28;20203;-67
2022/02/11 16:15:04;;;;;;;1999.90;999.90;;;;;;;;;;5073726;28;20592;-67
2022/02/11 16:18:03;;;;;;;1999.90;999.90;;;;;;;;;;5073895;28;20200;-68
2022/02/11 16:20:50;;;;;;;1999.90;999.90;;;;;;;;;;5073388;28;20601;-66
2022/02/11 16:23:40;;;;;;;1999.90;999.90;;;;;;;;;;5073031;28;20740;-67
2022/02/11 16:26:24;;;;;;;1999.90;999.90;;;;;;;;;;5072743;28;20235;-68
2022/02/11 16:29:09;;;;;;;1999.90;999.90;;;;;;;;;;5072474;28;20258;-68
2022/02/11 16:31:54;;;;;;;1999.90;999.90;;;;;;;;;;5073009;28;20973;-67
2022/02/11 16:34:39;;;;;;;1999.90;999.90;;;;;;;;;;5072803;28;20641;-67
2022/02/11 16:37:26;;;;;;;1999.90;999.90;;;;;;;;;;5072472;28;20653;-66
2022/02/11 16:40:11;;;;;;;1999.90;999.90;;;;;;;;;;5072538;28;20211;-67
2022/02/11 16:42:57;;;;;;;1999.90;999.90;;;;;;;;;;5072245;28;20201;-67
2022/02/11 16:45:42;;;;;;;1999.90;999.90;;;;;;;;;;5072911;28;20217;-67
2022/02/11 16:48:27;;;;;;;1999.90;999.90;;;;;;;;;;5075822;28;20204;-70
2022/02/11 16:51:12;;;;;;;1999.90;999.90;;;;;;;;;;5073688;28;20221;-66
2022/02/11 16:53:58;;;;;;;1999.90;999.90;;;;;;;;;;5074143;28;20206;-68
2022/02/11 16:56:43;;;;;;;1999.90;999.90;;;;;;;;;;5072329;28;20712;-67
2022/02/11 16:59:30;;;;;;;1999.90;999.90;;;;;;;;;;5070391;28;20390;-68
2022/02/11 17:02:15;;;;;;;1999.90;999.90;;;;;;;;;;5072312;28;20566;-68
2022/02/11 17:05:00;;;;;;;1999.90;999.90;;;;;;;;;;5072270;28;20754;-68
2022/02/11 17:07:45;;;;;;;1999.90;999.90;;;;;;;;;;5072125;28;20272;-67
2022/02/11 17:10:32;;;;;;;1999.90;999.90;;;;;;;;;;5071895;28;20273;-67
2022/02/11 17:13:17;;;;;;;1999.90;999.90;;;;;;;;;;5072252;28;20317;-68
2022/02/11 17:16:02;;;;;;;1999.90;999.90;;;;;;;;;;5072204;28;20219;-68
2022/02/11 17:18:47;;;;;;;1999.90;999.90;;;;;;;;;;5072003;28;20210;-67
2022/02/11 17:21:32;;;;;;;1999.90;999.90;;;;;;;;;;5072646;28;20329;-68
2022/02/11 17:24:17;;;;;;;1999.90;999.90;;;;;;;;;;5072842;28;20572;-67
2022/02/11 17:27:03;;;;;;;1999.90;999.90;;;;;;;;;;5071904;28;20225;-68
2022/02/11 17:29:48;;;;;;;1999.90;999.90;;;;;;;;;;5071723;28;20311;-67
2022/02/11 17:32:33;;;;;;;1999.90;999.90;;;;;;;;;;5071983;28;20222;-68
2022/02/11 17:35:18;;;;;;;1999.90;999.90;;;;;;;;;;5072141;28;20314;-67
2022/02/11 17:38:03;;;;;;;1999.90;999.90;;;;;;;;;;5071667;28;20610;-67
2022/02/11 17:40:48;;;;;;;1999.90;999.90;;;;;;;;;;5071926;28;20205;-68
2022/02/11 17:43:35;;;;;;;1999.90;999.90;;;;;;;;;;5071783;28;20207;-67
2022/02/11 17:46:20;;;;;;;1999.90;999.90;;;;;;;;;;5071812;28;20231;-67
2022/02/11 17:49:05;;;;;;;1999.90;999.90;;;;;;;;;;5071642;28;20230;-68
2022/02/11 17:51:51;;;;;;;1999.90;999.90;;;;;;;;;;5071571;28;20206;-68
2022/02/11 17:54:36;;;;;;;1999.90;999.90;;;;;;;;;;5071587;28;20201;-68
2022/02/11 17:57:23;;;;;;;1999.90;999.90;;;;;;;;;;5071320;28;20223;-68
2022/02/11 18:00:10;;;;;;;1999.90;999.90;;;;;;;;;;5071671;28;20205;-68
2022/02/11 18:02:55;;;;;;;1999.90;999.90;;;;;;;;;;5071341;28;20408;-68
2022/02/11 18:05:40;;;;;;;1999.90;999.90;;;;;;;;;;5071455;28;20221;-67
2022/02/11 18:08:25;;;;;;;1999.90;999.90;;;;;;;;;;5071372;28;20247;-68
2022/02/11 18:11:10;;;;;;;1999.90;999.90;;;;;;;;;;5075400;28;20230;-68
2022/02/11 18:13:54;;;;;;;1999.90;999.90;;;;;;;;;;5075516;28;20211;-67
2022/02/11 18:16:42;;;;;;;1999.90;999.90;;;;;;;;;;5075014;28;20709;-68
2022/02/11 18:19:29;;;;;;;1999.90;999.90;;;;;;;;;;5075233;28;20207;-68
2022/02/11 18:22:13;;;;;;;1999.90;999.90;;;;;;;;;;5075310;28;20214;-68
2022/02/11 18:24:58;;;;;;;1999.90;999.90;;;;;;;;;;5075362;28;20249;-67
2022/02/11 18:27:43;;;;;;;1999.90;999.90;;;;;;;;;;5075094;28;20909;-68